Share

Kirkwall, United Kingdom

1:30 PM BST on April 23, 2014 (GMT +0100)
Kirkwall (EGPA) Elev 85 ft | 58.95 °N, 2.90 °W | Change Station

Current weather conditions updated 10 minutes ago

Fog
Fog
48 °F
Feels Like 48 °F
N
17
Wind Variable Wind from SE
Sunrise 5:36 AM
Sunset 8:45 PM
Moon Last Quarter

Today is forecast to be Cooler than yesterday.

Pressure 30.01 in
Visibility 0.5 miles
Clouds Mostly Cloudy 100 ft
Overcast 200 ft
Dew Point 46 °F
Humidity 93%
Rainfall 0.00 in
Snow Depth Not available.
UV 2 out of 16
Pollen Not available.
Air Quality Not available.
Flu Activity Not available.
METAR EGPA 231220Z 14015KT 0800 R09/1000 FG BKN001 OVC002 09/08 Q1016

More Conditions Fewer Conditions

Pressure 30.01 in
Visibility 0.5 miles
Clouds Mostly Cloudy 100 ft
Overcast 200 ft
Dew Point 46 °F
Humidity 93%
Rainfall 0.00 in
Snow Depth Not available.
UV 2 out of 16
Pollen Not available.
Air Quality Not available.
Flu Activity Not available.
METAR EGPA 231220Z 14015KT 0800 R09/1000 FG BKN001 OVC002 09/08 Q1016

More Conditions Fewer Conditions

10-Day Weather Forecast

Almanac

Astronomy

Apr. 23, 2014 Rise Set
Actual Time 5:36 AM BST 8:45 PM BST
Civil Twilight 4:49 AM BST 9:32 PM BST
Nautical Twilight 3:44 AM BST 10:38 PM BST
Astronomical Twilight 1:55 AM BST 12:38 AM BST
Moon 3:27 AM BST 1:12 PM BST
Length of Visible Light 16h 42m
Length of Day
15h 08m
Tomorrow will be 5m 4s longer.
Last Quarter, 37% of the Moon is Illuminated
Today
Last Quarter
Apr 29
New
May 6
First Quarter
May 14
Full
May 21
Last Quarter

Yesterday's Extremes

Country Highs Country Lows

Community

  • April Sunset
    April Sunset
  • Waiting..
    Waiting..
  • Sunset...
    Sunset...
  • Happy outdoor day
    Happy outdoor day
  • mystic afternoon....
    mystic afternoon....

WunderPhotos

Upload Photos

1,704,257 photos uploaded!

Nearby

Snow Depth

Not available.

Coastal Water Temperatures

Place Temperature
No Stations Reporting

Earthquake Activity

City Distance Mag. Time & Date
No recent earthquake activity has been reported nearby.
Minimum magnitude displayed is 2.5.

Nearby Weather Stations

Station Location Temp. Windchill Dew Point Humidity Wind Precip. Elev Updated Type
Fea Hill, Tankerness 46.2 °F 38 °F 46 °F 98% SE  at  22.0 mph 0.00 in / hr 128 ft 1:30 PM BST Normal
Burray, Orkney, Burray 45.7 °F 37 °F 41 °F 85% SSE  at  23.5 mph 0.00 in / hr 190 ft 1:30 PM BST Normal
Sanday 47.5 °F 41 °F 46 °F 96% SE  at  16.0 mph 0.00 in / hr 16 ft 1:30 PM BST Normal

Show More Stations Show Fewer Stations

What do you think?

We're not finished. Please let us know what you like, what you don't like, and what you are still missing.